Time;durP1;ratioP1;P1;durP2;ratioP2;P2;SDS_P1;SDS_P2;PMS_P1;PMS_P2;Temp;Humidity;BMP_temperature;BMP_pressure;BME280_temperature;BME280_humidity;BME280_pressure;Samples;Min_cycle;Max_cycle;Signal;HPM_P1;HPM_P2
2024/03/30 00:00:40;;;;;;;14.45;8.70;;;;;;;;;;6097103;23;20003;-80
2024/03/30 00:03:06;;;;;;;16.75;8.85;;;;;;;;;;6070734;23;20015;-81
2024/03/30 00:05:31;;;;;;;17.98;9.40;;;;;;;;;;6092129;23;20010;-80
2024/03/30 00:07:57;;;;;;;19.02;9.75;;;;;;;;;;6093408;23;20094;-81
2024/03/30 00:10:23;;;;;;;15.40;8.82;;;;;;;;;;6093656;23;20457;-79
2024/03/30 00:12:49;;;;;;;14.68;8.73;;;;;;;;;;6093558;23;20007;-80
2024/03/30 00:15:15;;;;;;;16.20;9.07;;;;;;;;;;6092480;23;20035;-80
2024/03/30 00:17:41;;;;;;;18.17;10.25;;;;;;;;;;6092437;23;20467;-80
2024/03/30 00:20:07;;;;;;;17.40;9.07;;;;;;;;;;6092142;23;20015;-79
2024/03/30 00:22:32;;;;;;;14.90;8.50;;;;;;;;;;6092396;23;20013;-80
2024/03/30 00:24:58;;;;;;;18.15;9.45;;;;;;;;;;6069609;23;20017;-80
2024/03/30 00:27:24;;;;;;;17.25;9.13;;;;;;;;;;6068297;23;20073;-79
2024/03/30 00:29:49;;;;;;;16.70;9.40;;;;;;;;;;6092140;23;20085;-80
2024/03/30 00:32:15;;;;;;;18.98;10.38;;;;;;;;;;6092122;23;20010;-81
2024/03/30 00:34:41;;;;;;;16.05;8.63;;;;;;;;;;6068360;23;20007;-81
2024/03/30 00:37:06;;;;;;;14.57;7.97;;;;;;;;;;6067932;23;20010;-80
2024/03/30 00:39:32;;;;;;;19.52;10.48;;;;;;;;;;6068118;23;20078;-81
2024/03/30 00:41:57;;;;;;;15.63;9.00;;;;;;;;;;6068093;23;20014;-81
2024/03/30 00:44:23;;;;;;;15.57;9.38;;;;;;;;;;6092333;23;20468;-80
2024/03/30 00:46:48;;;;;;;16.67;9.00;;;;;;;;;;6092131;23;20034;-81
2024/03/30 00:49:14;;;;;;;13.05;8.48;;;;;;;;;;6092699;23;20038;-82
2024/03/30 00:51:39;;;;;;;15.82;9.35;;;;;;;;;;6068125;23;20089;-81
2024/03/30 00:54:05;;;;;;;14.13;8.43;;;;;;;;;;6068608;23;20007;-80
2024/03/30 00:56:31;;;;;;;14.18;7.88;;;;;;;;;;6092333;23;20003;-82
2024/03/30 00:58:56;;;;;;;14.70;7.65;;;;;;;;;;6092141;23;20002;-80
2024/03/30 01:01:22;;;;;;;14.85;8.27;;;;;;;;;;6069741;23;20010;-80
2024/03/30 01:03:48;;;;;;;14.93;8.63;;;;;;;;;;6068187;23;20066;-81
2024/03/30 01:06:16;;;;;;;14.25;8.45;;;;;;;;;;6045076;23;20438;-80
2024/03/30 01:08:42;;;;;;;15.02;7.95;;;;;;;;;;6070298;23;20066;-81
2024/03/30 01:11:07;;;;;;;12.85;7.45;;;;;;;;;;6092317;23;20021;-81
2024/03/30 01:13:33;;;;;;;15.05;7.93;;;;;;;;;;6091901;23;20015;-81
2024/03/30 01:15:59;;;;;;;11.30;6.57;;;;;;;;;;6068289;23;20011;-80
2024/03/30 01:18:26;;;;;;;11.40;7.22;;;;;;;;;;6091980;23;20077;-80
2024/03/30 01:20:51;;;;;;;11.27;6.80;;;;;;;;;;6067965;23;20007;-80
2024/03/30 01:23:18;;;;;;;11.23;6.97;;;;;;;;;;6068198;23;20138;-80
2024/03/30 01:25:44;;;;;;;14.93;7.15;;;;;;;;;;6092067;23;20022;-82
2024/03/30 01:28:09;;;;;;;12.50;7.43;;;;;;;;;;6067487;23;20036;-80
2024/03/30 01:30:35;;;;;;;12.48;6.93;;;;;;;;;;6043597;23;20026;-79
2024/03/30 01:33:01;;;;;;;12.10;6.55;;;;;;;;;;6067443;23;20014;-81
2024/03/30 01:35:26;;;;;;;11.73;6.28;;;;;;;;;;6067436;23;20007;-81
2024/03/30 01:37:52;;;;;;;12.80;6.35;;;;;;;;;;6043389;23;20011;-80
2024/03/30 01:40:19;;;;;;;10.70;6.20;;;;;;;;;;6092115;23;20089;-81
2024/03/30 01:42:45;;;;;;;12.80;6.43;;;;;;;;;;6069955;23;20022;-81
2024/03/30 01:45:10;;;;;;;11.73;6.82;;;;;;;;;;6068237;23;20042;-80
2024/03/30 01:47:36;;;;;;;11.77;6.82;;;;;;;;;;6091240;23;20010;-80
2024/03/30 01:50:01;;;;;;;11.30;5.90;;;;;;;;;;6067302;23;20049;-81
2024/03/30 01:52:28;;;;;;;11.27;6.28;;;;;;;;;;6067171;23;20042;-81
2024/03/30 01:54:54;;;;;;;9.23;5.80;;;;;;;;;;6091178;23;20011;-82
2024/03/30 01:57:20;;;;;;;11.48;5.85;;;;;;;;;;6067316;23;20094;-80
2024/03/30 01:59:47;;;;;;;10.98;6.00;;;;;;;;;;6067331;23;20038;-79
2024/03/30 02:02:13;;;;;;;10.75;5.65;;;;;;;;;;6091637;23;20046;-79
2024/03/30 02:04:39;;;;;;;9.85;5.22;;;;;;;;;;6067290;23;20011;-80
2024/03/30 02:07:05;;;;;;;10.23;5.50;;;;;;;;;;6067481;23;20121;-81
2024/03/30 02:09:32;;;;;;;9.60;5.53;;;;;;;;;;6067123;23;20479;-80
2024/03/30 02:11:57;;;;;;;9.95;6.05;;;;;;;;;;6043190;23;20011;-81
2024/03/30 02:14:23;;;;;;;10.90;5.20;;;;;;;;;;6043782;23;20099;-79
2024/03/30 02:16:48;;;;;;;12.10;6.78;;;;;;;;;;6067904;23;20006;-80
2024/03/30 02:19:15;;;;;;;13.40;5.80;;;;;;;;;;6091321;23;20408;-80
2024/03/30 02:21:41;;;;;;;10.85;5.95;;;;;;;;;;6091273;23;20010;-80
2024/03/30 02:24:10;;;;;;;10.68;6.05;;;;;;;;;;6091326;23;20049;-80
2024/03/30 02:26:36;;;;;;;9.50;5.40;;;;;;;;;;6067541;23;20007;-81
2024/03/30 02:29:02;;;;;;;9.88;5.22;;;;;;;;;;6068737;23;20014;-81
2024/03/30 02:31:28;;;;;;;9.23;5.22;;;;;;;;;;6069553;23;20033;-81
2024/03/30 02:33:53;;;;;;;9.02;5.28;;;;;;;;;;6047187;23;20492;-80
2024/03/30 02:36:19;;;;;;;10.13;5.82;;;;;;;;;;6069787;23;20014;-81
2024/03/30 02:38:45;;;;;;;10.85;5.65;;;;;;;;;;6093158;23;20034;-80
2024/03/30 02:41:11;;;;;;;10.13;5.57;;;;;;;;;;6093695;23;20003;-80
2024/03/30 02:43:36;;;;;;;13.07;6.47;;;;;;;;;;6071127;23;20010;-80
2024/03/30 02:46:02;;;;;;;10.68;5.60;;;;;;;;;;6093532;23;20006;-81
2024/03/30 02:48:27;;;;;;;13.63;5.25;;;;;;;;;;6069373;23;20043;-79
2024/03/30 02:50:53;;;;;;;8.82;5.28;;;;;;;;;;6069679;23;20007;-80
2024/03/30 02:53:18;;;;;;;10.13;6.05;;;;;;;;;;6071153;23;20353;-81
2024/03/30 02:55:44;;;;;;;11.18;5.65;;;;;;;;;;6096357;23;20459;-81
2024/03/30 02:58:10;;;;;;;11.65;5.05;;;;;;;;;;6096426;23;20385;-80
2024/03/30 03:00:35;;;;;;;12.93;5.50;;;;;;;;;;6095806;23;20007;-80
2024/03/30 03:03:01;;;;;;;13.35;5.60;;;;;;;;;;6095081;23;20019;-81
2024/03/30 03:05:26;;;;;;;9.00;5.32;;;;;;;;;;6093505;23;20349;-81
2024/03/30 03:07:52;;;;;;;10.85;5.30;;;;;;;;;;6069237;23;20011;-81
2024/03/30 03:10:17;;;;;;;9.25;4.30;;;;;;;;;;6070678;23;20011;-80
2024/03/30 03:12:43;;;;;;;13.63;5.63;;;;;;;;;;6070592;23;20093;-82
2024/03/30 03:15:09;;;;;;;8.45;4.95;;;;;;;;;;6093712;23;20077;-80
2024/03/30 03:17:34;;;;;;;10.65;4.70;;;;;;;;;;6093426;23;20018;-81
2024/03/30 03:20:01;;;;;;;8.43;5.20;;;;;;;;;;6069123;23;20085;-81
2024/03/30 03:22:26;;;;;;;8.95;4.50;;;;;;;;;;6069149;23;20453;-80
2024/03/30 03:24:52;;;;;;;10.77;4.82;;;;;;;;;;6070168;23;20007;-80
2024/03/30 03:27:18;;;;;;;13.35;5.88;;;;;;;;;;6093313;23;20013;-80
2024/03/30 03:29:43;;;;;;;13.73;4.22;;;;;;;;;;6068227;23;20286;-80
2024/03/30 03:32:09;;;;;;;9.02;4.60;;;;;;;;;;6092383;23;20035;-79
2024/03/30 03:34:34;;;;;;;10.30;4.10;;;;;;;;;;6069196;23;20007;-81
2024/03/30 03:37:00;;;;;;;7.60;4.43;;;;;;;;;;6066949;23;20011;-81
2024/03/30 03:39:25;;;;;;;8.13;4.00;;;;;;;;;;6068494;23;20066;-79
2024/03/30 03:41:51;;;;;;;7.00;3.88;;;;;;;;;;6066457;23;20374;-80
2024/03/30 03:44:17;;;;;;;7.50;4.15;;;;;;;;;;6068480;23;20031;-80
2024/03/30 03:46:42;;;;;;;8.07;4.20;;;;;;;;;;6091553;23;20474;-81
2024/03/30 03:49:08;;;;;;;7.10;4.07;;;;;;;;;;6092732;23;20006;-81
2024/03/30 03:51:33;;;;;;;11.57;4.57;;;;;;;;;;6068027;23;20393;-81
2024/03/30 03:53:59;;;;;;;9.50;4.22;;;;;;;;;;6068024;23;20442;-80
2024/03/30 03:56:24;;;;;;;9.48;4.40;;;;;;;;;;6070414;23;20424;-81
2024/03/30 03:58:50;;;;;;;7.55;3.88;;;;;;;;;;6091183;23;20341;-81
2024/03/30 04:01:16;;;;;;;8.57;4.43;;;;;;;;;;6068367;23;20091;-81
2024/03/30 04:03:42;;;;;;;9.48;4.10;;;;;;;;;;6090763;23;20046;-81
2024/03/30 04:06:08;;;;;;;11.68;4.35;;;;;;;;;;6068602;23;20019;-81
2024/03/30 04:08:34;;;;;;;8.55;4.60;;;;;;;;;;6090497;23;20070;-80
2024/03/30 04:11:00;;;;;;;8.27;3.78;;;;;;;;;;6066708;23;20421;-81
2024/03/30 04:13:26;;;;;;;7.32;3.72;;;;;;;;;;6090870;23;20491;-80
2024/03/30 04:15:51;;;;;;;7.35;4.00;;;;;;;;;;6068035;23;20003;-79
2024/03/30 04:18:17;;;;;;;8.50;4.22;;;;;;;;;;6090870;23;20438;-81
2024/03/30 04:20:42;;;;;;;10.00;4.20;;;;;;;;;;6090753;23;20033;-79
2024/03/30 04:23:08;;;;;;;9.75;4.93;;;;;;;;;;6067058;23;20342;-79
2024/03/30 04:25:33;;;;;;;10.10;5.28;;;;;;;;;;6091163;23;20042;-79
2024/03/30 04:27:59;;;;;;;13.98;5.05;;;;;;;;;;6091443;23;20382;-79
2024/03/30 04:30:24;;;;;;;8.23;4.50;;;;;;;;;;6066521;23;20449;-81
2024/03/30 04:32:50;;;;;;;12.13;5.32;;;;;;;;;;6090540;23;20007;-80
2024/03/30 04:35:15;;;;;;;7.25;4.18;;;;;;;;;;6090806;23;20019;-79
2024/03/30 04:37:41;;;;;;;9.77;4.47;;;;;;;;;;6066520;23;20014;-81
2024/03/30 04:40:07;;;;;;;10.52;4.47;;;;;;;;;;6090803;23;20322;-80
2024/03/30 04:42:33;;;;;;;14.50;4.40;;;;;;;;;;6091030;23;20098;-81
2024/03/30 04:44:58;;;;;;;8.57;3.95;;;;;;;;;;6066544;23;20574;-80
2024/03/30 04:47:24;;;;;;;10.98;4.47;;;;;;;;;;6066640;23;20448;-80
2024/03/30 04:49:49;;;;;;;7.85;4.00;;;;;;;;;;6090805;23;20348;-80
2024/03/30 04:52:15;;;;;;;10.55;4.55;;;;;;;;;;6067005;23;20041;-82
2024/03/30 04:54:40;;;;;;;10.27;4.03;;;;;;;;;;6069866;23;20010;-81
2024/03/30 04:57:06;;;;;;;10.70;4.70;;;;;;;;;;6092814;23;20007;-81
2024/03/30 04:59:31;;;;;;;11.13;4.57;;;;;;;;;;6092994;23;20007;-81
2024/03/30 05:01:57;;;;;;;11.20;5.63;;;;;;;;;;6068909;23;20046;-82
2024/03/30 05:04:22;;;;;;;14.32;4.30;;;;;;;;;;6068841;23;20353;-79
2024/03/30 05:06:48;;;;;;;10.88;4.28;;;;;;;;;;6068215;23;20003;-81
2024/03/30 05:09:13;;;;;;;10.32;4.53;;;;;;;;;;6068283;23;20031;-79
2024/03/30 05:11:39;;;;;;;11.02;4.05;;;;;;;;;;6068325;23;20007;-80
2024/03/30 05:14:04;;;;;;;8.75;4.20;;;;;;;;;;6092156;23;20011;-82
2024/03/30 05:16:30;;;;;;;10.40;4.90;;;;;;;;;;6091749;23;20347;-81
2024/03/30 05:18:58;;;;;;;16.90;5.07;;;;;;;;;;6092117;23;20006;-80
2024/03/30 05:21:25;;;;;;;12.40;4.43;;;;;;;;;;6091712;23;20014;-80
2024/03/30 05:23:50;;;;;;;13.68;4.45;;;;;;;;;;6092458;23;20090;-79
2024/03/30 05:26:15;;;;;;;11.13;4.68;;;;;;;;;;6069703;23;20042;-81
2024/03/30 05:28:41;;;;;;;13.13;4.35;;;;;;;;;;6092173;23;20010;-81
2024/03/30 05:31:25;;;;;;;11.30;4.32;;;;;;;;;;6092792;23;20010;-81
2024/03/30 05:33:50;;;;;;;10.38;4.78;;;;;;;;;;6068773;23;20445;-81
2024/03/30 05:36:16;;;;;;;11.55;4.22;;;;;;;;;;6092503;23;20014;-81
2024/03/30 05:38:42;;;;;;;14.35;4.25;;;;;;;;;;6073808;23;20007;-81
2024/03/30 05:41:07;;;;;;;11.57;4.63;;;;;;;;;;6100214;23;20035;-81
2024/03/30 05:43:33;;;;;;;9.50;3.55;;;;;;;;;;6094236;23;20015;-81
2024/03/30 05:45:58;;;;;;;12.18;4.35;;;;;;;;;;6093687;23;20039;-81
2024/03/30 05:48:24;;;;;;;12.40;5.03;;;;;;;;;;6068486;23;20033;-81
2024/03/30 05:50:50;;;;;;;11.65;4.68;;;;;;;;;;6068318;23;20033;-80
2024/03/30 05:53:15;;;;;;;8.68;4.25;;;;;;;;;;6091966;23;20010;-80
2024/03/30 05:55:41;;;;;;;13.40;4.32;;;;;;;;;;6068670;23;20011;-80
2024/03/30 05:58:09;;;;;;;12.45;6.38;;;;;;;;;;6068882;23;20074;-81
2024/03/30 06:00:35;;;;;;;8.88;4.07;;;;;;;;;;6068838;23;20468;-81
2024/03/30 06:03:03;;;;;;;9.43;4.00;;;;;;;;;;6092065;23;20011;-81
2024/03/30 06:05:29;;;;;;;10.98;3.95;;;;;;;;;;6093115;23;20322;-80
2024/03/30 06:07:54;;;;;;;11.30;3.67;;;;;;;;;;6092112;23;20017;-81
2024/03/30 06:10:20;;;;;;;12.27;3.72;;;;;;;;;;6092115;23;20011;-82
2024/03/30 06:12:46;;;;;;;9.50;3.63;;;;;;;;;;6067615;23;20078;-81
2024/03/30 06:15:11;;;;;;;11.18;3.63;;;;;;;;;;6068071;23;20003;-80
2024/03/30 06:17:38;;;;;;;13.02;4.20;;;;;;;;;;6068040;23;20007;-81
2024/03/30 06:20:05;;;;;;;7.13;3.42;;;;;;;;;;6067690;23;20322;-80
2024/03/30 06:22:33;;;;;;;13.07;4.00;;;;;;;;;;6068555;23;20015;-81
2024/03/30 06:24:59;;;;;;;6.57;3.33;;;;;;;;;;6068871;23;20050;-81
2024/03/30 06:27:25;;;;;;;10.93;4.07;;;;;;;;;;6047501;23;20015;-81
2024/03/30 06:29:50;;;;;;;7.68;3.33;;;;;;;;;;6076373;23;20326;-81
2024/03/30 06:32:16;;;;;;;8.93;3.65;;;;;;;;;;6072563;23;20007;-80
2024/03/30 06:34:42;;;;;;;8.63;3.38;;;;;;;;;;6072126;23;20459;-81
2024/03/30 06:37:08;;;;;;;9.43;3.70;;;;;;;;;;6069305;23;20034;-82
2024/03/30 06:45:02;;;;;;;10.05;3.13;;;;;;;;;;6091800;23;20512;-79
2024/03/30 06:47:29;;;;;;;9.68;3.47;;;;;;;;;;6091897;23;20007;-79
2024/03/30 06:49:55;;;;;;;9.93;3.47;;;;;;;;;;6090809;23;20014;-80
2024/03/30 06:52:20;;;;;;;11.82;4.00;;;;;;;;;;6069081;23;20007;-80
2024/03/30 06:54:46;;;;;;;14.25;3.53;;;;;;;;;;6043287;23;20014;-80
2024/03/30 06:57:11;;;;;;;16.13;3.60;;;;;;;;;;6043877;23;20011;-80
2024/03/30 06:59:37;;;;;;;11.25;3.60;;;;;;;;;;6068089;23;20443;-81
2024/03/30 07:02:02;;;;;;;11.00;3.33;;;;;;;;;;6043548;23;20035;-79
2024/03/30 07:04:28;;;;;;;14.02;3.80;;;;;;;;;;6043863;23;20013;-81
2024/03/30 07:06:54;;;;;;;17.60;5.10;;;;;;;;;;6068745;23;20037;-80
2024/03/30 07:09:19;;;;;;;15.45;4.15;;;;;;;;;;6044880;23;20011;-81
2024/03/30 07:11:45;;;;;;;17.95;4.25;;;;;;;;;;6069050;23;20290;-80
2024/03/30 07:14:10;;;;;;;18.92;4.57;;;;;;;;;;6067295;23;20078;-80
2024/03/30 07:16:36;;;;;;;17.13;4.80;;;;;;;;;;6042997;23;19998;-80
2024/03/30 07:19:01;;;;;;;30.42;5.35;;;;;;;;;;6068988;23;20007;-80
2024/03/30 07:21:27;;;;;;;19.58;4.55;;;;;;;;;;6021367;23;20002;-81
2024/03/30 07:23:52;;;;;;;31.08;5.50;;;;;;;;;;6050556;23;20457;-81
2024/03/30 07:26:18;;;;;;;23.55;4.47;;;;;;;;;;6051490;23;20015;-82
2024/03/30 07:28:44;;;;;;;30.33;5.28;;;;;;;;;;6052441;23;20074;-82
2024/03/30 07:31:09;;;;;;;27.55;5.50;;;;;;;;;;6053505;23;20035;-80
2024/03/30 07:33:35;;;;;;;25.70;5.90;;;;;;;;;;6076766;23;20106;-81
2024/03/30 07:36:01;;;;;;;25.25;5.05;;;;;;;;;;6051849;23;20066;-80
2024/03/30 07:38:31;;;;;;;20.05;4.82;;;;;;;;;;6054291;23;20468;-82
2024/03/30 07:40:57;;;;;;;31.75;6.07;;;;;;;;;;6076348;23;20086;-82
2024/03/30 07:43:24;;;;;;;35.75;7.07;;;;;;;;;;6055388;23;20015;-80
2024/03/30 07:45:50;;;;;;;33.67;5.25;;;;;;;;;;6078403;23;20093;-80
2024/03/30 07:48:16;;;;;;;35.70;5.72;;;;;;;;;;6056601;23;20072;-81
2024/03/30 07:50:41;;;;;;;36.47;6.28;;;;;;;;;;6055566;23;20015;-82
2024/03/30 07:53:07;;;;;;;42.90;5.22;;;;;;;;;;6053719;23;20330;-81
2024/03/30 07:55:33;;;;;;;46.50;6.75;;;;;;;;;;6058303;23;20022;-82
2024/03/30 07:57:58;;;;;;;42.35;8.82;;;;;;;;;;6086257;23;20035;-80
2024/03/30 08:00:24;;;;;;;36.17;6.00;;;;;;;;;;6082976;23;20003;-82
2024/03/30 08:02:51;;;;;;;32.38;5.28;;;;;;;;;;6058393;23;20011;-81
2024/03/30 08:05:19;;;;;;;44.35;7.32;;;;;;;;;;6058928;23;20042;-80
2024/03/30 08:07:45;;;;;;;38.17;7.68;;;;;;;;;;6084253;23;20007;-81
2024/03/30 08:10:11;;;;;;;41.10;7.68;;;;;;;;;;6059265;23;20007;-80
2024/03/30 08:12:37;;;;;;;44.20;7.15;;;;;;;;;;6059278;23;20011;-81
2024/03/30 08:15:03;;;;;;;49.45;7.78;;;;;;;;;;6036138;23;20006;-81
2024/03/30 08:17:29;;;;;;;63.10;10.40;;;;;;;;;;6057983;23;20346;-81
2024/03/30 08:19:54;;;;;;;66.03;8.48;;;;;;;;;;6082557;23;20010;-83
2024/03/30 08:22:20;;;;;;;48.42;7.47;;;;;;;;;;6060867;23;20041;-81
2024/03/30 08:24:45;;;;;;;48.75;8.00;;;;;;;;;;6056888;23;20104;-81
2024/03/30 08:27:11;;;;;;;64.47;9.15;;;;;;;;;;6072141;23;20035;-82
2024/03/30 08:29:36;;;;;;;42.17;8.02;;;;;;;;;;6057565;23;20015;-81
2024/03/30 08:32:02;;;;;;;36.20;6.32;;;;;;;;;;6080903;23;20013;-82
2024/03/30 08:34:28;;;;;;;45.92;8.15;;;;;;;;;;6083203;23;20014;-81
2024/03/30 08:36:53;;;;;;;53.35;8.07;;;;;;;;;;6056123;23;20121;-81
2024/03/30 08:39:19;;;;;;;61.20;9.07;;;;;;;;;;6049742;23;20042;-81
2024/03/30 08:41:45;;;;;;;79.38;10.23;;;;;;;;;;6024414;23;20014;-80
2024/03/30 08:44:11;;;;;;;61.08;9.20;;;;;;;;;;6027176;23;20076;-81
2024/03/30 08:46:36;;;;;;;49.38;9.77;;;;;;;;;;6047646;23;20085;-80
2024/03/30 08:49:05;;;;;;;82.68;12.55;;;;;;;;;;6047652;23;20024;-81
2024/03/30 08:51:32;;;;;;;86.30;12.73;;;;;;;;;;6080345;23;20011;-80
2024/03/30 08:54:04;;;;;;;107.55;13.10;;;;;;;;;;6094790;23;20014;-82
2024/03/30 08:56:30;;;;;;;112.38;14.00;;;;;;;;;;6097934;23;20056;-82
2024/03/30 08:58:59;;;;;;;105.05;12.65;;;;;;;;;;6095916;23;20011;-80
2024/03/30 09:01:25;;;;;;;111.80;15.10;;;;;;;;;;6071774;23;20011;-81
2024/03/30 09:03:51;;;;;;;108.88;12.05;;;;;;;;;;6070541;23;20058;-81
2024/03/30 09:06:17;;;;;;;115.07;16.65;;;;;;;;;;6098712;23;20011;-80
2024/03/30 09:08:44;;;;;;;104.25;13.10;;;;;;;;;;6085601;23;20022;-80
2024/03/30 09:11:10;;;;;;;128.38;18.50;;;;;;;;;;6090613;23;20011;-81
2024/03/30 09:13:35;;;;;;;102.10;13.63;;;;;;;;;;6103014;23;20066;-82
2024/03/30 09:16:01;;;;;;;101.50;12.60;;;;;;;;;;6072771;23;20017;-80
2024/03/30 09:18:27;;;;;;;125.07;14.13;;;;;;;;;;6097808;23;20058;-80
2024/03/30 09:20:53;;;;;;;107.22;12.85;;;;;;;;;;6071784;23;20614;-80
2024/03/30 09:23:18;;;;;;;101.57;15.13;;;;;;;;;;6072822;23;20511;-82
2024/03/30 09:25:44;;;;;;;119.68;16.05;;;;;;;;;;6077255;23;20014;-81
2024/03/30 09:28:09;;;;;;;110.68;14.30;;;;;;;;;;6106901;23;20018;-81
2024/03/30 09:30:35;;;;;;;112.85;13.63;;;;;;;;;;6082411;23;20015;-82
2024/03/30 09:33:01;;;;;;;121.00;12.98;;;;;;;;;;6098384;23;20033;-82
2024/03/30 09:35:27;;;;;;;101.93;14.23;;;;;;;;;;6070635;23;20025;-81
2024/03/30 09:37:52;;;;;;;129.43;15.43;;;;;;;;;;6071647;23;20007;-81
2024/03/30 09:40:18;;;;;;;113.50;14.63;;;;;;;;;;6073019;23;20007;-81
2024/03/30 09:42:45;;;;;;;104.22;14.25;;;;;;;;;;6071008;23;20081;-82
2024/03/30 09:45:12;;;;;;;103.20;17.52;;;;;;;;;;6094380;23;20074;-82
2024/03/30 09:47:42;;;;;;;122.53;14.02;;;;;;;;;;6071464;23;20070;-81
2024/03/30 09:50:09;;;;;;;132.27;15.30;;;;;;;;;;6071119;23;20018;-81
2024/03/30 09:52:36;;;;;;;129.57;15.40;;;;;;;;;;6069936;23;20073;-81
2024/03/30 09:55:08;;;;;;;94.45;13.65;;;;;;;;;;6046634;23;20006;-82
2024/03/30 09:57:34;;;;;;;123.95;15.70;;;;;;;;;;6096030;23;20015;-82
2024/03/30 10:00:00;;;;;;;102.15;12.55;;;;;;;;;;6097127;23;20019;-81
2024/03/30 10:02:26;;;;;;;105.28;13.77;;;;;;;;;;6095671;23;20437;-81
2024/03/30 10:04:52;;;;;;;96.65;15.27;;;;;;;;;;6095062;23;20058;-82
2024/03/30 10:07:21;;;;;;;122.00;12.55;;;;;;;;;;6095147;23;20310;-80
2024/03/30 10:09:46;;;;;;;;;;;;;;;;;;6095904;23;20011;-80
2024/03/30 10:12:18;;;;;;;93.00;11.82;;;;;;;;;;6023786;23;19913;-79
2024/03/30 10:14:45;;;;;;;94.47;11.57;;;;;;;;;;6047581;23;20109;-81
2024/03/30 10:17:11;;;;;;;104.18;13.85;;;;;;;;;;6072097;23;20003;-82
2024/03/30 10:19:40;;;;;;;109.68;12.93;;;;;;;;;;6071804;23;20011;-81
2024/03/30 10:22:06;;;;;;;101.03;12.18;;;;;;;;;;6094975;23;20011;-82
2024/03/30 10:24:32;;;;;;;88.55;12.93;;;;;;;;;;6097362;23;20039;-82
2024/03/30 10:26:58;;;;;;;107.82;13.52;;;;;;;;;;6096126;23;20041;-83
2024/03/30 10:29:24;;;;;;;108.90;15.50;;;;;;;;;;6096128;23;20007;-82
2024/03/30 10:31:50;;;;;;;86.57;12.15;;;;;;;;;;6095599;23;20014;-79
2024/03/30 10:34:16;;;;;;;100.60;12.70;;;;;;;;;;6071520;23;20344;-82
2024/03/30 10:36:42;;;;;;;110.72;12.98;;;;;;;;;;6071842;23;20445;-80
2024/03/30 10:39:07;;;;;;;102.97;11.93;;;;;;;;;;6095932;23;20104;-82
2024/03/30 10:41:33;;;;;;;105.20;13.52;;;;;;;;;;6076094;23;20015;-82
2024/03/30 10:43:59;;;;;;;87.20;11.85;;;;;;;;;;6076497;23;20022;-80
2024/03/30 10:46:25;;;;;;;90.43;13.82;;;;;;;;;;6099073;23;20017;-80
2024/03/30 10:48:51;;;;;;;105.93;15.38;;;;;;;;;;6071769;23;20023;-79
2024/03/30 10:51:17;;;;;;;97.45;11.65;;;;;;;;;;6070485;23;20075;-82
2024/03/30 10:53:43;;;;;;;97.82;12.35;;;;;;;;;;6095341;23;20018;-82
2024/03/30 10:56:09;;;;;;;92.25;13.73;;;;;;;;;;6070838;23;20007;-81
2024/03/30 10:58:36;;;;;;;115.45;14.15;;;;;;;;;;6095699;23;20006;-82
2024/03/30 11:01:02;;;;;;;97.55;10.85;;;;;;;;;;6095179;23;20014;-82
2024/03/30 11:03:30;;;;;;;101.50;13.48;;;;;;;;;;6096150;23;20174;-80
2024/03/30 11:05:56;;;;;;;87.77;12.87;;;;;;;;;;6071911;23;20029;-82
2024/03/30 11:08:22;;;;;;;96.65;13.10;;;;;;;;;;6071073;23;20086;-81
2024/03/30 11:10:48;;;;;;;109.05;13.00;;;;;;;;;;6095977;23;20026;-82
2024/03/30 11:13:14;;;;;;;97.78;13.73;;;;;;;;;;6071831;23;20416;-82
2024/03/30 11:15:41;;;;;;;102.75;11.95;;;;;;;;;;6046473;23;20057;-82
2024/03/30 11:18:12;;;;;;;80.82;11.45;;;;;;;;;;6094669;23;20437;-81
2024/03/30 11:20:38;;;;;;;104.00;13.70;;;;;;;;;;6093732;23;20002;-79
2024/03/30 11:23:08;;;;;;;100.55;11.93;;;;;;;;;;6093618;23;20539;-81
2024/03/30 11:25:34;;;;;;;104.95;12.70;;;;;;;;;;6069772;23;20062;-81
2024/03/30 11:28:16;;;;;;;100.47;13.95;;;;;;;;;;6095083;23;20015;-82
2024/03/30 11:30:49;;;;;;;84.88;12.18;;;;;;;;;;6070665;23;20007;-81
2024/03/30 11:33:21;;;;;;;103.05;13.65;;;;;;;;;;6046006;23;20019;-81
2024/03/30 11:36:06;;;;;;;95.80;12.00;;;;;;;;;;6068869;23;20011;-81
2024/03/30 11:38:34;;;;;;;103.15;11.68;;;;;;;;;;6095771;23;20007;-81
2024/03/30 11:41:01;;;;;;;93.55;12.75;;;;;;;;;;6097334;23;20014;-81
2024/03/30 11:43:27;;;;;;;112.53;11.73;;;;;;;;;;6075717;23;20015;-80
2024/03/30 11:45:53;;;;;;;83.82;11.45;;;;;;;;;;6100044;23;20011;-81
2024/03/30 11:48:19;;;;;;;88.00;11.82;;;;;;;;;;6102181;23;20014;-83
2024/03/30 11:50:45;;;;;;;93.97;13.35;;;;;;;;;;6083721;23;20057;-83
2024/03/30 11:53:15;;;;;;;90.50;12.55;;;;;;;;;;6084509;23;20011;-82
2024/03/30 11:55:41;;;;;;;103.38;12.52;;;;;;;;;;6104028;23;20059;-83
2024/03/30 11:58:07;;;;;;;88.07;12.57;;;;;;;;;;6103695;23;20133;-82
2024/03/30 12:00:46;;;;;;;87.85;12.32;;;;;;;;;;6078422;23;20434;-81
2024/03/30 12:03:11;;;;;;;97.82;12.63;;;;;;;;;;6072854;23;20021;-82
2024/03/30 12:05:40;;;;;;;89.15;12.13;;;;;;;;;;6071430;23;20316;-82
2024/03/30 12:08:05;;;;;;;98.63;15.50;;;;;;;;;;6095927;23;20011;-81
2024/03/30 12:10:31;;;;;;;100.30;13.27;;;;;;;;;;6096738;23;20018;-82
2024/03/30 12:13:00;;;;;;;107.03;14.02;;;;;;;;;;6097667;23;20385;-80
2024/03/30 12:15:29;;;;;;;88.32;12.23;;;;;;;;;;6097358;23;20039;-82
2024/03/30 12:17:56;;;;;;;86.28;13.65;;;;;;;;;;6056637;23;20318;-82
2024/03/30 12:20:22;;;;;;;93.03;13.10;;;;;;;;;;6080734;23;20042;-83
2024/03/30 12:22:48;;;;;;;80.43;13.32;;;;;;;;;;6106453;23;20007;-83
2024/03/30 12:25:15;;;;;;;106.22;14.63;;;;;;;;;;6094639;23;20035;-82
2024/03/30 12:27:42;;;;;;;99.35;13.23;;;;;;;;;;6095955;23;20030;-81
2024/03/30 12:30:08;;;;;;;93.55;14.07;;;;;;;;;;6070427;23;20094;-82
2024/03/30 12:32:34;;;;;;;87.05;13.07;;;;;;;;;;6095586;23;20131;-82
2024/03/30 12:34:59;;;;;;;90.13;12.43;;;;;;;;;;6095681;23;20006;-82
2024/03/30 12:37:26;;;;;;;84.45;11.60;;;;;;;;;;6097494;23;20018;-81
2024/03/30 12:39:52;;;;;;;82.97;11.77;;;;;;;;;;6073182;23;20066;-83
2024/03/30 12:42:21;;;;;;;98.80;13.50;;;;;;;;;;6052621;23;20113;-82
2024/03/30 12:44:57;;;;;;;92.35;10.60;;;;;;;;;;6078930;23;20086;-83
2024/03/30 12:47:23;;;;;;;86.45;11.55;;;;;;;;;;6101548;23;20003;-84
2024/03/30 12:49:48;;;;;;;77.57;12.25;;;;;;;;;;6103154;23;20007;-82
2024/03/30 12:52:14;;;;;;;84.88;12.65;;;;;;;;;;6103988;23;20018;-83
2024/03/30 12:54:41;;;;;;;89.57;12.40;;;;;;;;;;6081004;23;20007;-83
2024/03/30 12:57:07;;;;;;;99.63;12.60;;;;;;;;;;6079999;23;20011;-82
2024/03/30 12:59:33;;;;;;;93.53;11.18;;;;;;;;;;6102781;23;20034;-83
2024/03/30 13:02:02;;;;;;;80.55;12.82;;;;;;;;;;6080999;23;20003;-82
2024/03/30 13:04:28;;;;;;;90.50;12.25;;;;;;;;;;6079068;23;20025;-81
2024/03/30 13:06:54;;;;;;;78.68;11.10;;;;;;;;;;6087171;23;20015;-82
2024/03/30 13:09:20;;;;;;;92.85;13.50;;;;;;;;;;6087722;23;20018;-82
2024/03/30 13:11:50;;;;;;;72.35;12.73;;;;;;;;;;6081655;23;20011;-82
2024/03/30 13:14:15;;;;;;;87.80;14.30;;;;;;;;;;6074754;23;20021;-82
2024/03/30 13:16:41;;;;;;;90.88;14.55;;;;;;;;;;6098470;23;20006;-83
2024/03/30 13:19:11;;;;;;;60.47;12.30;;;;;;;;;;6078339;23;20007;-81
2024/03/30 13:21:40;;;;;;;65.78;11.65;;;;;;;;;;6108162;23;20027;-82
2024/03/30 13:24:06;;;;;;;71.35;11.25;;;;;;;;;;6103504;23;20011;-82
2024/03/30 13:26:32;;;;;;;74.18;12.48;;;;;;;;;;6105148;23;20031;-82
2024/03/30 13:28:58;;;;;;;93.95;16.20;;;;;;;;;;6108632;23;20022;-82
2024/03/30 13:31:23;;;;;;;92.63;14.23;;;;;;;;;;6108059;23;20015;-82
2024/03/30 13:33:49;;;;;;;100.15;15.23;;;;;;;;;;6081698;23;20062;-83
2024/03/30 13:36:15;;;;;;;82.97;12.80;;;;;;;;;;6107229;23;20007;-82
2024/03/30 13:38:40;;;;;;;78.80;13.55;;;;;;;;;;6085455;23;20011;-83
2024/03/30 13:41:06;;;;;;;75.55;11.60;;;;;;;;;;6107434;23;20006;-82
2024/03/30 13:43:32;;;;;;;88.90;12.02;;;;;;;;;;6103270;23;20018;-82
2024/03/30 13:45:57;;;;;;;71.43;11.57;;;;;;;;;;6075549;23;20007;-82
2024/03/30 13:48:23;;;;;;;81.60;11.90;;;;;;;;;;6076687;23;20408;-83
2024/03/30 13:50:48;;;;;;;80.63;11.80;;;;;;;;;;6098800;23;20022;-81
2024/03/30 13:53:14;;;;;;;83.18;12.85;;;;;;;;;;6075766;23;20014;-81
2024/03/30 13:55:41;;;;;;;75.63;11.95;;;;;;;;;;6077895;23;20006;-84
2024/03/30 13:58:07;;;;;;;72.22;11.57;;;;;;;;;;6080651;23;20345;-83
2024/03/30 14:00:32;;;;;;;63.25;11.10;;;;;;;;;;6081815;23;20007;-83
2024/03/30 14:02:58;;;;;;;81.38;11.27;;;;;;;;;;6059317;23;20021;-83
2024/03/30 14:05:24;;;;;;;73.75;11.32;;;;;;;;;;6107037;23;20011;-83
2024/03/30 14:07:49;;;;;;;72.78;11.18;;;;;;;;;;6107419;23;20011;-83
2024/03/30 14:10:15;;;;;;;82.10;11.18;;;;;;;;;;6079816;23;20038;-82
2024/03/30 14:12:40;;;;;;;84.97;10.65;;;;;;;;;;6103694;23;20017;-82
2024/03/30 14:15:06;;;;;;;73.90;10.98;;;;;;;;;;6103643;23;20002;-82
2024/03/30 14:17:38;;;;;;;77.35;12.23;;;;;;;;;;6083708;23;20003;-83
2024/03/30 14:20:06;;;;;;;62.55;10.43;;;;;;;;;;6105119;23;20512;-85
2024/03/30 14:22:32;;;;;;;70.60;11.82;;;;;;;;;;6082873;23;20003;-82
2024/03/30 14:24:58;;;;;;;72.43;11.05;;;;;;;;;;6084471;23;20015;-84